createdAt,value
2023-01-07T00:01:36.226Z,2.05
2023-01-07T00:04:03.480Z,1.80
2023-01-07T00:06:32.696Z,1.95
2023-01-07T00:08:59.465Z,1.90
2023-01-07T00:11:30.109Z,2.00
2023-01-07T00:13:57.087Z,1.70
2023-01-07T00:16:24.837Z,1.67
2023-01-07T00:18:51.961Z,1.70
2023-01-07T00:21:18.879Z,1.88
2023-01-07T00:23:45.648Z,1.70
2023-01-07T00:26:19.482Z,1.42
2023-01-07T00:28:47.787Z,1.60
2023-01-07T00:31:24.692Z,1.50
2023-01-07T00:33:54.064Z,1.52
2023-01-07T00:36:24.428Z,1.42
2023-01-07T00:38:55.108Z,1.50
2023-01-07T00:41:21.594Z,1.70
2023-01-07T00:43:48.014Z,1.35
2023-01-07T00:46:15.514Z,1.70
2023-01-07T00:48:42.345Z,1.70
2023-01-07T00:51:09.657Z,1.45
2023-01-07T00:53:36.165Z,1.80
2023-01-07T00:56:02.515Z,1.52
2023-01-07T00:58:28.879Z,1.77
2023-01-07T01:00:56.391Z,1.50
2023-01-07T01:03:23.452Z,1.30
2023-01-07T01:05:50.226Z,1.40
2023-01-07T01:08:18.009Z,1.60
2023-01-07T01:10:47.949Z,1.35
2023-01-07T01:13:18.089Z,1.60
2023-01-07T01:15:45.695Z,1.90
2023-01-07T01:18:12.408Z,1.60
2023-01-07T01:20:38.858Z,1.45
2023-01-07T01:23:05.662Z,1.77
2023-01-07T01:25:32.105Z,1.48
2023-01-07T01:27:58.496Z,1.40
2023-01-07T01:30:26.335Z,1.67
2023-01-07T01:32:53.393Z,1.33
2023-01-07T01:35:19.733Z,1.70
2023-01-07T01:37:46.155Z,1.42
2023-01-07T01:40:12.676Z,1.40
2023-01-07T01:42:39.083Z,1.75
2023-01-07T01:45:05.875Z,1.52
2023-01-07T01:47:46.987Z,1.80
2023-01-07T01:50:18.685Z,1.80
2023-01-07T01:52:48.790Z,1.75
2023-01-07T01:55:16.562Z,1.55
2023-01-07T01:57:43.167Z,1.92
2023-01-07T02:00:11.410Z,1.75
2023-01-07T02:02:44.031Z,1.52
2023-01-07T02:05:10.629Z,1.80
2023-01-07T02:07:36.952Z,2.05
2023-01-07T02:10:14.776Z,1.77
2023-01-07T02:12:49.992Z,1.80
2023-01-07T02:15:24.644Z,1.83
2023-01-07T02:17:56.815Z,1.52
2023-01-07T02:20:46.322Z,1.77
2023-01-07T02:23:41.990Z,1.90
2023-01-07T02:26:08.284Z,1.67
2023-01-07T02:28:42.457Z,1.77
2023-01-07T02:31:14.884Z,1.73
2023-01-07T02:33:49.641Z,1.58
2023-01-07T02:36:16.012Z,1.70
2023-01-07T02:38:48.407Z,1.60
2023-01-07T02:41:14.879Z,1.55
2023-01-07T02:43:50.283Z,2.08
2023-01-07T02:46:19.731Z,1.85
2023-01-07T02:48:46.218Z,2.10
2023-01-07T02:51:12.863Z,1.80
2023-01-07T02:53:40.822Z,1.33
2023-01-07T02:56:25.826Z,1.95
2023-01-07T02:59:00.757Z,1.80
2023-01-07T03:01:42.732Z,1.43
2023-01-07T03:04:18.229Z,2.03
2023-01-07T03:06:54.368Z,1.90
2023-01-07T03:09:23.429Z,1.65
2023-01-07T03:11:49.814Z,1.42
2023-01-07T03:14:35.221Z,1.77
2023-01-07T03:17:04.889Z,1.60
2023-01-07T03:19:32.583Z,1.60
2023-01-07T03:21:59.994Z,2.00
2023-01-07T03:24:27.928Z,1.92
2023-01-07T03:26:56.136Z,1.60
2023-01-07T03:29:22.777Z,1.48
2023-01-07T03:32:11.564Z,1.73
2023-01-07T03:34:38.479Z,1.50
2023-01-07T03:37:06.873Z,1.60
2023-01-07T03:39:35.106Z,0.90
2023-01-07T03:42:23.154Z,2.10
2023-01-07T03:44:49.547Z,2.10
2023-01-07T03:47:16.011Z,1.63
2023-01-07T03:49:42.401Z,1.92
2023-01-07T03:52:08.808Z,1.88
2023-01-07T03:54:35.203Z,1.50
2023-01-07T03:57:01.564Z,1.52
2023-01-07T03:59:27.981Z,1.88
2023-01-07T04:01:54.436Z,1.58
2023-01-07T04:04:21.178Z,1.73
2023-01-07T04:06:47.576Z,1.80
2023-01-07T04:09:18.824Z,1.90
2023-01-07T04:11:45.404Z,1.88
2023-01-07T04:14:11.788Z,2.00
2023-01-07T04:16:38.480Z,2.03
2023-01-07T04:19:04.849Z,2.47
2023-01-07T04:21:31.532Z,2.42
2023-01-07T04:23:57.852Z,1.90
2023-01-07T04:26:24.164Z,2.33
2023-01-07T04:28:50.453Z,2.30
2023-01-07T04:31:16.787Z,2.08
2023-01-07T04:33:44.060Z,2.00
2023-01-07T04:36:11.511Z,2.92
2023-01-07T04:38:37.856Z,2.00
2023-01-07T04:41:04.137Z,2.40
2023-01-07T04:43:30.554Z,2.50
2023-01-07T04:45:56.987Z,2.40
2023-01-07T04:48:23.403Z,2.70
2023-01-07T04:50:49.712Z,2.30
2023-01-07T04:53:16.102Z,2.55
2023-01-07T04:55:42.457Z,2.60
2023-01-07T04:58:08.833Z,2.50
2023-01-07T05:00:35.151Z,3.25
2023-01-07T05:03:01.816Z,2.38
2023-01-07T05:05:28.168Z,3.05
2023-01-07T05:07:54.526Z,3.00
2023-01-07T05:10:21.027Z,2.42
2023-01-07T05:12:47.383Z,2.95
2023-01-07T05:15:13.915Z,3.25
2023-01-07T05:17:40.413Z,3.53
2023-01-07T05:20:08.120Z,3.13
2023-01-07T05:22:34.458Z,3.20
2023-01-07T05:25:00.789Z,3.35
2023-01-07T05:27:27.125Z,3.03
2023-01-07T05:29:53.438Z,3.58
2023-01-07T05:32:19.838Z,2.40
2023-01-07T05:34:46.218Z,3.25
2023-01-07T05:37:12.775Z,3.25
2023-01-07T05:39:39.190Z,3.05
2023-01-07T05:42:05.547Z,3.33
2023-01-07T05:44:31.865Z,2.50
2023-01-07T05:46:58.193Z,3.17
2023-01-07T05:49:24.490Z,3.17
2023-01-07T05:51:50.903Z,3.50
2023-01-07T05:54:17.225Z,2.83
2023-01-07T05:56:43.601Z,2.42
2023-01-07T05:59:09.903Z,2.65
2023-01-07T06:01:36.262Z,2.60
2023-01-07T06:04:02.604Z,1.92
2023-01-07T06:06:28.940Z,2.05
2023-01-07T06:08:55.301Z,3.60
2023-01-07T06:11:21.601Z,3.05
2023-01-07T06:13:48.034Z,2.50
2023-01-07T06:16:14.491Z,2.50
2023-01-07T06:18:40.935Z,2.47
2023-01-07T06:21:07.340Z,1.88
2023-01-07T06:23:33.910Z,2.22
2023-01-07T06:26:00.302Z,1.90
2023-01-07T06:28:26.653Z,1.88
2023-01-07T06:30:53.087Z,2.40
2023-01-07T06:33:19.529Z,2.42
2023-01-07T06:35:46.144Z,2.50
2023-01-07T06:38:12.668Z,2.03
2023-01-07T06:40:39.020Z,2.10
2023-01-07T06:43:05.424Z,2.13
2023-01-07T06:45:31.766Z,2.08
2023-01-07T06:47:58.504Z,1.77
2023-01-07T06:50:25.321Z,1.90
2023-01-07T06:52:51.694Z,2.33
2023-01-07T06:55:18.062Z,1.83
2023-01-07T06:57:44.413Z,1.80
2023-01-07T07:00:11.008Z,1.67
2023-01-07T07:02:37.422Z,1.80
2023-01-07T07:05:03.973Z,1.77
2023-01-07T07:07:30.414Z,2.10
2023-01-07T07:09:56.704Z,1.85
2023-01-07T07:12:23.140Z,1.45
2023-01-07T07:14:49.449Z,1.35
2023-01-07T07:17:16.499Z,1.35
2023-01-07T07:19:42.964Z,1.30
2023-01-07T07:22:09.321Z,1.10
2023-01-07T07:24:35.697Z,1.33
2023-01-07T07:27:02.373Z,1.15
2023-01-07T07:29:28.720Z,0.90
2023-01-07T07:31:55.133Z,1.13
2023-01-07T07:34:21.426Z,1.02
2023-01-07T07:36:47.762Z,0.95
2023-01-07T07:39:14.266Z,0.88
2023-01-07T07:41:40.685Z,0.90
2023-01-07T07:44:07.054Z,0.70
2023-01-07T07:46:33.446Z,0.80
2023-01-07T07:48:59.826Z,1.27
2023-01-07T07:51:26.213Z,0.73
2023-01-07T07:53:52.712Z,0.90
2023-01-07T07:56:19.027Z,0.70
2023-01-07T07:58:45.468Z,0.80
2023-01-07T08:01:11.912Z,0.70
2023-01-07T08:03:38.502Z,0.90
2023-01-07T08:06:05.284Z,0.90
2023-01-07T08:08:31.746Z,0.90
2023-01-07T08:10:58.136Z,0.70
2023-01-07T08:13:25.789Z,0.90
2023-01-07T08:15:52.233Z,0.70
2023-01-07T08:18:19.751Z,0.77
2023-01-07T08:20:46.662Z,0.95
2023-01-07T08:23:13.041Z,1.20
2023-01-07T08:25:39.510Z,0.70
2023-01-07T08:28:05.915Z,0.70
2023-01-07T08:30:32.308Z,1.00
2023-01-07T08:32:58.965Z,0.60
2023-01-07T08:35:25.390Z,0.70
2023-01-07T08:37:51.831Z,1.00
2023-01-07T08:40:18.163Z,0.98
2023-01-07T08:42:44.499Z,0.82
2023-01-07T08:45:11.145Z,0.82
2023-01-07T08:47:37.640Z,1.00
2023-01-07T08:50:04.274Z,0.70
2023-01-07T08:52:30.608Z,0.93
2023-01-07T08:54:56.943Z,0.70
2023-01-07T08:57:23.291Z,0.82
2023-01-07T08:59:49.650Z,0.70
2023-01-07T09:02:17.702Z,0.77
2023-01-07T09:04:44.559Z,0.50
2023-01-07T09:07:11.497Z,0.75
2023-01-07T09:09:37.923Z,0.50
2023-01-07T09:12:04.787Z,2.03
2023-01-07T09:14:31.393Z,0.90
2023-01-07T09:16:57.723Z,0.63
2023-01-07T09:19:24.247Z,0.63
2023-01-07T09:21:51.429Z,0.57
2023-01-07T09:24:18.045Z,0.52
2023-01-07T09:26:44.376Z,0.47
2023-01-07T09:29:10.829Z,0.60
2023-01-07T09:31:37.236Z,0.43
2023-01-07T09:34:03.589Z,0.70
2023-01-07T09:36:29.988Z,0.30
2023-01-07T09:38:56.308Z,0.50
2023-01-07T09:41:22.617Z,0.40
2023-01-07T09:44:01.006Z,0.40
2023-01-07T09:46:28.059Z,0.50
2023-01-07T09:48:57.969Z,0.45
2023-01-07T09:51:24.419Z,0.55
2023-01-07T09:53:52.367Z,0.50
2023-01-07T09:56:29.276Z,0.22
2023-01-07T09:58:56.912Z,0.50
2023-01-07T10:01:27.778Z,0.63
2023-01-07T10:03:54.234Z,0.50
2023-01-07T10:06:44.396Z,0.50
2023-01-07T10:09:10.803Z,0.40
2023-01-07T10:11:37.296Z,0.20
2023-01-07T10:14:19.603Z,0.20
2023-01-07T10:16:51.148Z,0.30
2023-01-07T10:19:24.669Z,0.52
2023-01-07T10:21:58.826Z,0.40
2023-01-07T10:24:27.476Z,0.43
2023-01-07T10:26:56.232Z,0.30
2023-01-07T10:29:36.463Z,0.38
2023-01-07T10:32:14.468Z,0.50
2023-01-07T10:34:45.507Z,0.40
2023-01-07T10:37:23.480Z,0.43
2023-01-07T10:39:57.961Z,0.43
2023-01-07T10:42:35.319Z,0.50
2023-01-07T10:45:04.454Z,0.40
2023-01-07T10:47:49.435Z,0.70
2023-01-07T10:50:24.985Z,0.40
2023-01-07T10:52:58.585Z,0.50
2023-01-07T10:55:36.806Z,0.40
2023-01-07T10:58:03.582Z,0.60
2023-01-07T11:00:29.952Z,0.45
2023-01-07T11:03:00.069Z,0.32
2023-01-07T11:05:32.842Z,0.40
2023-01-07T11:08:01.524Z,0.30
2023-01-07T11:10:33.207Z,0.30
2023-01-07T11:13:16.247Z,0.38
2023-01-07T11:15:48.988Z,0.50
2023-01-07T11:18:18.358Z,0.30
2023-01-07T11:20:48.777Z,0.25
2023-01-07T11:23:27.317Z,0.30
2023-01-07T11:25:54.557Z,0.47
2023-01-07T11:28:25.802Z,0.38
2023-01-07T11:30:57.620Z,0.30
2023-01-07T11:34:02.718Z,0.40
2023-01-07T11:36:42.806Z,0.30
2023-01-07T11:39:10.545Z,0.40
2023-01-07T11:41:36.846Z,0.50
2023-01-07T11:44:03.230Z,0.50
2023-01-07T11:46:31.652Z,0.50
2023-01-07T11:49:00.910Z,0.52
2023-01-07T11:51:37.907Z,0.30
2023-01-07T11:54:04.244Z,0.52
2023-01-07T11:56:33.097Z,0.50
2023-01-07T11:59:11.450Z,0.40
2023-01-07T12:02:01.115Z,0.25
2023-01-07T12:04:30.551Z,0.43
2023-01-07T12:07:01.143Z,0.65
2023-01-07T12:09:36.410Z,0.45
2023-01-07T12:12:31.045Z,0.60
2023-01-07T12:14:59.068Z,0.40
2023-01-07T12:17:28.099Z,0.60
2023-01-07T12:20:03.471Z,0.40
2023-01-07T12:22:47.956Z,0.63
2023-01-07T12:25:26.388Z,0.75
2023-01-07T12:28:01.647Z,0.63
2023-01-07T12:30:41.451Z,0.70
2023-01-07T12:33:21.155Z,0.45
2023-01-07T12:35:48.117Z,0.40
2023-01-07T12:38:25.418Z,0.60
2023-01-07T12:40:53.935Z,0.63
2023-01-07T12:43:30.656Z,0.77
2023-01-07T12:46:01.969Z,0.90
2023-01-07T12:48:47.270Z,0.73
2023-01-07T12:51:22.726Z,0.73
2023-01-07T12:53:51.632Z,0.70
2023-01-07T12:56:20.551Z,0.80
2023-01-07T12:59:07.018Z,0.60
2023-01-07T13:01:38.783Z,1.07
2023-01-07T13:04:13.861Z,0.70
2023-01-07T13:06:46.697Z,0.65
2023-01-07T13:09:19.173Z,0.70
2023-01-07T13:12:06.984Z,0.80
2023-01-07T13:14:54.703Z,0.65
2023-01-07T13:17:28.659Z,0.70
2023-01-07T13:19:55.403Z,0.75
2023-01-07T13:22:24.491Z,0.70
2023-01-07T13:24:55.080Z,0.95
2023-01-07T13:27:41.922Z,0.80
2023-01-07T13:30:08.252Z,0.60
2023-01-07T13:32:34.551Z,0.80
2023-01-07T13:35:17.820Z,0.70
2023-01-07T13:38:04.425Z,0.88
2023-01-07T13:40:44.185Z,0.70
2023-01-07T13:43:29.299Z,0.60
2023-01-07T13:46:01.763Z,0.55
2023-01-07T13:48:28.662Z,0.65
2023-01-07T13:50:56.658Z,0.95
2023-01-07T13:53:25.924Z,0.82
2023-01-07T13:55:53.355Z,0.70
2023-01-07T13:58:28.797Z,0.60
2023-01-07T14:01:05.891Z,0.70
2023-01-07T14:03:53.108Z,0.80
2023-01-07T14:06:19.669Z,0.77
2023-01-07T14:08:45.952Z,0.70
2023-01-07T14:11:12.620Z,0.60
2023-01-07T14:13:45.043Z,0.70
2023-01-07T14:16:15.644Z,0.90
2023-01-07T14:18:54.479Z,0.70
2023-01-07T14:21:36.028Z,0.60
2023-01-07T14:24:16.723Z,0.52
2023-01-07T14:27:10.745Z,0.77
2023-01-07T14:29:37.024Z,0.75
2023-01-07T14:32:24.757Z,0.70
2023-01-07T14:34:59.571Z,0.80
2023-01-07T14:37:30.396Z,0.75
2023-01-07T14:39:57.420Z,1.00
2023-01-07T14:42:39.011Z,0.85
2023-01-07T14:45:25.277Z,0.70
2023-01-07T14:50:22.017Z,0.75
2023-01-07T14:53:08.581Z,0.70
2023-01-07T14:55:35.024Z,0.65
2023-01-07T14:58:04.395Z,0.75
2023-01-07T15:00:41.009Z,0.80
2023-01-07T15:03:14.886Z,0.50
2023-01-07T15:06:00.220Z,0.70
2023-01-07T15:08:48.242Z,0.77
2023-01-07T15:11:43.789Z,0.50
2023-01-07T15:14:51.915Z,0.68
2023-01-07T15:17:18.386Z,0.68
2023-01-07T15:19:45.030Z,1.00
2023-01-07T15:22:46.938Z,0.73
2023-01-07T15:25:16.058Z,0.70
2023-01-07T15:27:59.530Z,0.90
2023-01-07T15:30:25.934Z,0.80
2023-01-07T15:32:52.422Z,0.90
2023-01-07T15:35:20.694Z,1.20
2023-01-07T15:37:48.512Z,0.68
2023-01-07T15:40:16.587Z,0.70
2023-01-07T15:42:44.289Z,0.90
2023-01-07T15:45:13.800Z,0.70
2023-01-07T15:47:41.619Z,1.00
2023-01-07T15:50:27.016Z,1.00
2023-01-07T15:52:55.228Z,1.13
2023-01-07T15:55:22.523Z,0.82
2023-01-07T15:57:48.989Z,0.80
2023-01-07T16:00:15.664Z,1.13
2023-01-07T16:02:43.439Z,0.90
2023-01-07T16:05:10.292Z,0.90
2023-01-07T16:07:41.616Z,0.98
2023-01-07T16:10:18.300Z,0.63
2023-01-07T16:12:48.186Z,0.90
2023-01-07T16:15:21.768Z,1.33
2023-01-07T16:17:55.625Z,0.75
2023-01-07T16:20:23.682Z,0.95
2023-01-07T16:22:50.646Z,0.95
2023-01-07T16:25:21.448Z,1.00
2023-01-07T16:27:47.936Z,1.08
2023-01-07T16:30:17.732Z,0.80
2023-01-07T16:32:45.412Z,1.05
2023-01-07T16:35:20.672Z,1.20
2023-01-07T16:37:48.033Z,0.90
2023-01-07T16:40:19.838Z,0.88
2023-01-07T16:42:47.139Z,1.00
2023-01-07T16:45:24.260Z,1.10
2023-01-07T16:48:01.548Z,1.10
2023-01-07T16:50:39.222Z,1.40
2023-01-07T16:53:19.855Z,1.08
2023-01-07T16:55:51.510Z,1.45
2023-01-07T16:58:20.832Z,1.25
2023-01-07T17:00:51.143Z,1.20
2023-01-07T17:03:17.709Z,1.30
2023-01-07T17:05:56.306Z,1.38
2023-01-07T17:08:22.772Z,0.90
2023-01-07T17:10:56.424Z,1.40
2023-01-07T17:13:22.755Z,1.48
2023-01-07T17:15:49.166Z,1.45
2023-01-07T17:18:15.473Z,1.45
2023-01-07T17:20:42.800Z,1.38
2023-01-07T17:23:27.718Z,1.35
2023-01-07T17:25:58.058Z,1.48
2023-01-07T17:28:25.602Z,1.48
2023-01-07T17:30:52.371Z,1.90
2023-01-07T17:33:20.233Z,1.40
2023-01-07T17:35:46.992Z,1.48
2023-01-07T17:38:14.708Z,1.50
2023-01-07T17:40:41.621Z,1.30
2023-01-07T17:43:43.444Z,1.30
2023-01-07T17:46:11.260Z,1.30
2023-01-07T17:48:38.087Z,1.60
2023-01-07T17:51:05.206Z,2.47
2023-01-07T17:53:32.689Z,1.17
2023-01-07T17:56:02.286Z,1.50
2023-01-07T17:58:30.206Z,1.00
2023-01-07T18:00:57.162Z,1.63
2023-01-07T18:03:24.226Z,1.00
2023-01-07T18:05:50.661Z,1.38
2023-01-07T18:08:17.039Z,1.17
2023-01-07T18:11:02.717Z,1.50
2023-01-07T18:13:29.543Z,1.45
2023-01-07T18:15:59.163Z,1.30
2023-01-07T18:18:25.746Z,1.63
2023-01-07T18:20:54.215Z,1.30
2023-01-07T18:23:20.935Z,1.40
2023-01-07T18:25:48.659Z,1.95
2023-01-07T18:28:15.280Z,1.83
2023-01-07T18:30:41.605Z,0.88
2023-01-07T18:33:08.818Z,1.30
2023-01-07T18:35:35.780Z,1.83
2023-01-07T18:38:02.412Z,1.38
2023-01-07T18:40:28.866Z,1.80
2023-01-07T18:42:55.898Z,1.77
2023-01-07T18:45:22.417Z,1.50
2023-01-07T18:47:49.512Z,1.63
2023-01-07T18:50:16.402Z,1.30
2023-01-07T18:52:42.848Z,1.70
2023-01-07T18:55:10.204Z,1.60
2023-01-07T18:57:36.767Z,2.22
2023-01-07T19:00:06.116Z,2.00
2023-01-07T19:02:32.604Z,2.65
2023-01-07T19:04:58.909Z,2.10
2023-01-07T19:07:25.229Z,2.10
2023-01-07T19:09:51.587Z,1.60
2023-01-07T19:12:17.985Z,2.03
2023-01-07T19:14:44.317Z,1.65
2023-01-07T19:17:10.814Z,1.52
2023-01-07T19:19:47.487Z,1.85
2023-01-07T19:22:15.766Z,1.77
2023-01-07T19:24:42.204Z,1.70
2023-01-07T19:27:08.628Z,1.80
2023-01-07T19:29:35.032Z,1.42
2023-01-07T19:32:01.397Z,1.95
2023-01-07T19:34:27.801Z,2.22
2023-01-07T19:36:54.214Z,1.45
2023-01-07T19:39:21.403Z,2.00
2023-01-07T19:41:47.882Z,1.60
2023-01-07T19:44:14.769Z,1.85
2023-01-07T19:46:42.503Z,1.80
2023-01-07T19:49:09.793Z,1.73
2023-01-07T19:51:37.857Z,1.92
2023-01-07T19:54:04.770Z,1.70
2023-01-07T19:56:31.589Z,1.83
2023-01-07T19:58:58.829Z,1.77
2023-01-07T20:01:26.708Z,1.55
2023-01-07T20:03:53.843Z,1.77
2023-01-07T20:06:21.531Z,1.67
2023-01-07T20:08:47.942Z,1.75
2023-01-07T20:11:14.855Z,1.98
2023-01-07T20:13:41.385Z,1.70
2023-01-07T20:16:11.866Z,2.05
2023-01-07T20:18:39.048Z,1.50
2023-01-07T20:21:05.826Z,1.88
2023-01-07T20:23:33.938Z,1.95
2023-01-07T20:26:01.954Z,1.50
2023-01-07T20:28:28.727Z,1.98
2023-01-07T20:30:55.032Z,1.50
2023-01-07T20:33:21.338Z,2.30
2023-01-07T20:35:47.648Z,2.17
2023-01-07T20:38:14.344Z,2.30
2023-01-07T20:40:41.633Z,2.08
2023-01-07T20:43:08.735Z,1.90
2023-01-07T20:45:38.017Z,1.80
2023-01-07T20:48:04.744Z,2.15
2023-01-07T20:50:32.038Z,1.45
2023-01-07T20:52:58.415Z,1.70
2023-01-07T20:55:24.779Z,2.10
2023-01-07T20:57:51.083Z,1.95
2023-01-07T21:00:17.559Z,2.33
2023-01-07T21:02:44.004Z,2.15
2023-01-07T21:05:10.449Z,2.00
2023-01-07T21:07:36.802Z,1.30
2023-01-07T21:10:03.285Z,1.75
2023-01-07T21:12:29.675Z,1.83
2023-01-07T21:14:56.060Z,1.83
2023-01-07T21:17:22.459Z,1.38
2023-01-07T21:19:48.875Z,2.08
2023-01-07T21:22:15.696Z,2.00
2023-01-07T21:24:42.227Z,1.58
2023-01-07T21:27:08.543Z,1.58
2023-01-07T21:29:34.971Z,2.22
2023-01-07T21:32:04.078Z,1.92
2023-01-07T21:34:30.594Z,1.92
2023-01-07T21:36:57.096Z,1.70
2023-01-07T21:39:23.493Z,1.75
2023-01-07T21:41:49.812Z,2.10
2023-01-07T21:44:16.161Z,1.65
2023-01-07T21:46:42.529Z,1.83
2023-01-07T21:49:08.919Z,1.92
2023-01-07T21:51:36.325Z,1.95
2023-01-07T21:54:02.704Z,1.73
2023-01-07T21:56:32.636Z,2.00
2023-01-07T21:58:59.290Z,1.38
2023-01-07T22:01:28.612Z,1.73
2023-01-07T22:03:56.211Z,1.80
2023-01-07T22:06:24.245Z,2.03
2023-01-07T22:08:53.675Z,1.92
2023-01-07T22:11:20.064Z,1.88
2023-01-07T22:13:53.586Z,1.90
2023-01-07T22:16:20.776Z,1.40
2023-01-07T22:18:47.516Z,1.45
2023-01-07T22:21:14.013Z,1.63
2023-01-07T22:23:40.435Z,1.50
2023-01-07T22:26:07.277Z,1.02
2023-01-07T22:28:35.528Z,0.90
2023-01-07T22:31:03.169Z,1.10
2023-01-07T22:33:29.468Z,0.70
2023-01-07T22:35:56.460Z,0.60
2023-01-07T22:38:23.780Z,0.80
2023-01-07T22:40:50.306Z,0.95
2023-01-07T22:43:18.853Z,0.60
2023-01-07T22:45:50.025Z,0.73
2023-01-07T22:48:19.727Z,0.88
2023-01-07T22:50:46.107Z,0.63
2023-01-07T22:53:12.550Z,1.00
2023-01-07T22:55:39.352Z,0.80
2023-01-07T22:58:05.680Z,1.30
2023-01-07T23:00:39.142Z,0.90
2023-01-07T23:03:05.651Z,1.00
2023-01-07T23:05:31.969Z,1.15
2023-01-07T23:07:58.592Z,0.75
2023-01-07T23:10:25.014Z,0.80
2023-01-07T23:12:51.367Z,0.63
2023-01-07T23:15:17.692Z,1.02
2023-01-07T23:17:44.041Z,1.02
2023-01-07T23:20:10.574Z,1.52
2023-01-07T23:22:36.897Z,0.93
2023-01-07T23:25:03.362Z,1.00
2023-01-07T23:27:29.708Z,1.05
2023-01-07T23:29:56.080Z,0.43
2023-01-07T23:32:22.456Z,1.10
2023-01-07T23:34:48.819Z,1.00
2023-01-07T23:37:15.169Z,0.80
2023-01-07T23:39:41.539Z,1.42
2023-01-07T23:42:07.873Z,1.20
2023-01-07T23:44:34.218Z,0.88
2023-01-07T23:47:00.534Z,1.08
2023-01-07T23:49:26.852Z,0.90
2023-01-07T23:51:53.258Z,1.10
2023-01-07T23:54:19.814Z,0.80
2023-01-07T23:56:46.105Z,1.52
2023-01-07T23:59:12.887Z,1.00
